sensor_id;sensor_type;location;lat;lon;timestamp;temperature;humidity
23544;DHT22;11950;51.230;4.012;2024-01-30T00:00:05;11.70;99.90
23544;DHT22;11950;51.230;4.012;2024-01-30T00:02:32;11.70;99.90
23544;DHT22;11950;51.230;4.012;2024-01-30T00:04:58;11.70;99.90
23544;DHT22;11950;51.230;4.012;2024-01-30T00:07:24;11.70;99.90
23544;DHT22;11950;51.230;4.012;2024-01-30T00:09:51;11.70;99.90
23544;DHT22;11950;51.230;4.012;2024-01-30T00:12:17;11.70;99.90
23544;DHT22;11950;51.230;4.012;2024-01-30T00:14:43;11.70;99.90
23544;DHT22;11950;51.230;4.012;2024-01-30T00:17:10;11.70;99.90
23544;DHT22;11950;51.230;4.012;2024-01-30T00:19:36;11.80;99.90
23544;DHT22;11950;51.230;4.012;2024-01-30T00:22:02;11.80;99.90
23544;DHT22;11950;51.230;4.012;2024-01-30T00:24:29;11.80;99.90
23544;DHT22;11950;51.230;4.012;2024-01-30T00:26:56;11.80;99.90
23544;DHT22;11950;51.230;4.012;2024-01-30T00:29:22;11.80;99.90
23544;DHT22;11950;51.230;4.012;2024-01-30T00:31:49;11.80;99.90
23544;DHT22;11950;51.230;4.012;2024-01-30T00:34:15;11.80;99.90
23544;DHT22;11950;51.230;4.012;2024-01-30T00:36:41;11.80;99.90
23544;DHT22;11950;51.230;4.012;2024-01-30T00:39:08;11.80;99.90
23544;DHT22;11950;51.230;4.012;2024-01-30T00:41:35;11.80;99.90
23544;DHT22;11950;51.230;4.012;2024-01-30T00:44:02;11.80;99.90
23544;DHT22;11950;51.230;4.012;2024-01-30T00:46:28;11.80;99.90
23544;DHT22;11950;51.230;4.012;2024-01-30T00:48:54;11.80;99.90
23544;DHT22;11950;51.230;4.012;2024-01-30T00:51:20;11.80;99.90
23544;DHT22;11950;51.230;4.012;2024-01-30T00:53:47;11.80;99.90
23544;DHT22;11950;51.230;4.012;2024-01-30T00:56:13;11.80;99.90
23544;DHT22;11950;51.230;4.012;2024-01-30T00:58:40;11.80;99.90
23544;DHT22;11950;51.230;4.012;2024-01-30T01:01:06;11.80;99.90
23544;DHT22;11950;51.230;4.012;2024-01-30T01:03:33;11.80;99.90
23544;DHT22;11950;51.230;4.012;2024-01-30T01:05:59;11.80;99.90
23544;DHT22;11950;51.230;4.012;2024-01-30T01:08:26;11.70;99.90
23544;DHT22;11950;51.230;4.012;2024-01-30T01:10:52;11.70;99.90
23544;DHT22;11950;51.230;4.012;2024-01-30T01:13:19;11.70;99.90
23544;DHT22;11950;51.230;4.012;2024-01-30T01:15:46;11.70;99.90
23544;DHT22;11950;51.230;4.012;2024-01-30T01:18:12;11.70;99.90
23544;DHT22;11950;51.230;4.012;2024-01-30T01:20:38;11.60;99.90
23544;DHT22;11950;51.230;4.012;2024-01-30T01:23:05;11.60;99.90
23544;DHT22;11950;51.230;4.012;2024-01-30T01:25:31;11.60;99.90
23544;DHT22;11950;51.230;4.012;2024-01-30T01:27:57;11.50;99.90
23544;DHT22;11950;51.230;4.012;2024-01-30T01:30:23;11.50;99.90
23544;DHT22;11950;51.230;4.012;2024-01-30T01:32:51;11.50;99.90
23544;DHT22;11950;51.230;4.012;2024-01-30T01:35:27;11.50;99.90
23544;DHT22;11950;51.230;4.012;2024-01-30T01:37:54;11.50;99.90
23544;DHT22;11950;51.230;4.012;2024-01-30T01:40:24;11.40;99.90
23544;DHT22;11950;51.230;4.012;2024-01-30T01:42:51;11.40;99.90
23544;DHT22;11950;51.230;4.012;2024-01-30T01:45:21;11.40;99.90
23544;DHT22;11950;51.230;4.012;2024-01-30T01:47:50;11.40;99.90
23544;DHT22;11950;51.230;4.012;2024-01-30T01:50:18;11.30;99.90
23544;DHT22;11950;51.230;4.012;2024-01-30T01:52:47;11.30;99.90
23544;DHT22;11950;51.230;4.012;2024-01-30T01:55:15;11.30;99.90
23544;DHT22;11950;51.230;4.012;2024-01-30T01:57:42;11.20;99.90
23544;DHT22;11950;51.230;4.012;2024-01-30T02:00:09;11.20;99.90
23544;DHT22;11950;51.230;4.012;2024-01-30T02:02:37;11.20;99.90
23544;DHT22;11950;51.230;4.012;2024-01-30T02:05:05;11.20;99.90
23544;DHT22;11950;51.230;4.012;2024-01-30T02:07:31;11.20;99.90
23544;DHT22;11950;51.230;4.012;2024-01-30T02:09:58;11.20;99.90
23544;DHT22;11950;51.230;4.012;2024-01-30T02:12:24;11.20;99.90
23544;DHT22;11950;51.230;4.012;2024-01-30T02:14:50;11.20;99.90
23544;DHT22;11950;51.230;4.012;2024-01-30T02:17:17;11.20;99.90
23544;DHT22;11950;51.230;4.012;2024-01-30T02:19:43;11.20;99.90
23544;DHT22;11950;51.230;4.012;2024-01-30T02:22:10;11.20;99.90
23544;DHT22;11950;51.230;4.012;2024-01-30T02:24:36;11.20;99.90
23544;DHT22;11950;51.230;4.012;2024-01-30T02:27:03;11.20;99.90
23544;DHT22;11950;51.230;4.012;2024-01-30T02:29:29;11.20;99.90
23544;DHT22;11950;51.230;4.012;2024-01-30T02:31:55;11.20;99.90
23544;DHT22;11950;51.230;4.012;2024-01-30T02:34:21;11.30;99.90
23544;DHT22;11950;51.230;4.012;2024-01-30T02:36:48;11.30;99.90
23544;DHT22;11950;51.230;4.012;2024-01-30T02:39:14;11.30;99.90
23544;DHT22;11950;51.230;4.012;2024-01-30T02:41:40;11.30;99.90
23544;DHT22;11950;51.230;4.012;2024-01-30T02:44:07;11.40;99.90
23544;DHT22;11950;51.230;4.012;2024-01-30T02:46:33;11.40;99.90
23544;DHT22;11950;51.230;4.012;2024-01-30T02:48:59;11.40;99.90
23544;DHT22;11950;51.230;4.012;2024-01-30T02:51:25;11.40;99.90
23544;DHT22;11950;51.230;4.012;2024-01-30T02:53:52;11.40;99.90
23544;DHT22;11950;51.230;4.012;2024-01-30T02:56:18;11.50;99.90
23544;DHT22;11950;51.230;4.012;2024-01-30T02:58:44;11.50;99.90
23544;DHT22;11950;51.230;4.012;2024-01-30T03:01:10;11.60;99.90
23544;DHT22;11950;51.230;4.012;2024-01-30T03:03:36;11.50;99.90
23544;DHT22;11950;51.230;4.012;2024-01-30T03:06:03;11.60;99.90
23544;DHT22;11950;51.230;4.012;2024-01-30T03:08:29;11.60;99.90
23544;DHT22;11950;51.230;4.012;2024-01-30T03:10:55;11.70;99.90
23544;DHT22;11950;51.230;4.012;2024-01-30T03:13:22;11.70;99.90
23544;DHT22;11950;51.230;4.012;2024-01-30T03:15:51;11.70;99.90
23544;DHT22;11950;51.230;4.012;2024-01-30T03:18:17;11.70;99.90
23544;DHT22;11950;51.230;4.012;2024-01-30T03:20:44;11.70;99.90
23544;DHT22;11950;51.230;4.012;2024-01-30T03:23:10;11.70;99.90
23544;DHT22;11950;51.230;4.012;2024-01-30T03:25:36;11.70;99.90
23544;DHT22;11950;51.230;4.012;2024-01-30T03:28:03;11.70;99.90
23544;DHT22;11950;51.230;4.012;2024-01-30T03:30:29;11.70;99.90
23544;DHT22;11950;51.230;4.012;2024-01-30T03:32:55;11.70;99.90
23544;DHT22;11950;51.230;4.012;2024-01-30T03:35:22;11.70;99.90
23544;DHT22;11950;51.230;4.012;2024-01-30T03:37:48;11.70;99.90
23544;DHT22;11950;51.230;4.012;2024-01-30T03:40:14;11.70;99.90
23544;DHT22;11950;51.230;4.012;2024-01-30T03:42:41;11.60;99.90
23544;DHT22;11950;51.230;4.012;2024-01-30T03:45:08;11.70;99.90
23544;DHT22;11950;51.230;4.012;2024-01-30T03:47:34;11.70;99.90
23544;DHT22;11950;51.230;4.012;2024-01-30T03:50:00;11.70;99.90
23544;DHT22;11950;51.230;4.012;2024-01-30T03:52:26;11.70;99.90
23544;DHT22;11950;51.230;4.012;2024-01-30T03:54:53;11.70;99.90
23544;DHT22;11950;51.230;4.012;2024-01-30T03:57:19;11.70;99.90
23544;DHT22;11950;51.230;4.012;2024-01-30T03:59:45;11.70;99.90
23544;DHT22;11950;51.230;4.012;2024-01-30T04:02:12;11.70;99.90
23544;DHT22;11950;51.230;4.012;2024-01-30T04:04:38;11.70;99.90
23544;DHT22;11950;51.230;4.012;2024-01-30T04:07:05;11.70;99.90
23544;DHT22;11950;51.230;4.012;2024-01-30T04:09:31;11.70;99.90
23544;DHT22;11950;51.230;4.012;2024-01-30T04:11:58;11.70;99.90
23544;DHT22;11950;51.230;4.012;2024-01-30T04:14:24;11.70;99.90
23544;DHT22;11950;51.230;4.012;2024-01-30T04:16:51;11.60;99.90
23544;DHT22;11950;51.230;4.012;2024-01-30T04:19:17;11.60;99.90
23544;DHT22;11950;51.230;4.012;2024-01-30T04:21:43;11.60;99.90
23544;DHT22;11950;51.230;4.012;2024-01-30T04:24:09;11.60;99.90
23544;DHT22;11950;51.230;4.012;2024-01-30T04:26:36;11.50;99.90
23544;DHT22;11950;51.230;4.012;2024-01-30T04:29:02;11.50;99.90
23544;DHT22;11950;51.230;4.012;2024-01-30T04:31:29;11.50;99.90
23544;DHT22;11950;51.230;4.012;2024-01-30T04:33:55;11.50;99.90
23544;DHT22;11950;51.230;4.012;2024-01-30T04:36:21;11.50;99.90
23544;DHT22;11950;51.230;4.012;2024-01-30T04:38:47;11.40;99.90
23544;DHT22;11950;51.230;4.012;2024-01-30T04:41:14;11.40;99.90
23544;DHT22;11950;51.230;4.012;2024-01-30T04:43:40;11.40;99.90
23544;DHT22;11950;51.230;4.012;2024-01-30T04:46:06;11.40;99.90
23544;DHT22;11950;51.230;4.012;2024-01-30T04:48:32;11.40;99.90
23544;DHT22;11950;51.230;4.012;2024-01-30T04:50:59;11.40;99.90
23544;DHT22;11950;51.230;4.012;2024-01-30T04:53:27;11.40;99.90
23544;DHT22;11950;51.230;4.012;2024-01-30T04:55:53;11.40;99.90
23544;DHT22;11950;51.230;4.012;2024-01-30T04:58:20;11.40;99.90
23544;DHT22;11950;51.230;4.012;2024-01-30T05:00:46;11.40;99.90
23544;DHT22;11950;51.230;4.012;2024-01-30T05:03:19;11.40;99.90
23544;DHT22;11950;51.230;4.012;2024-01-30T05:05:45;11.50;99.90
23544;DHT22;11950;51.230;4.012;2024-01-30T05:08:12;11.50;99.90
23544;DHT22;11950;51.230;4.012;2024-01-30T05:10:38;11.50;99.90
23544;DHT22;11950;51.230;4.012;2024-01-30T05:13:04;11.50;99.90
23544;DHT22;11950;51.230;4.012;2024-01-30T05:15:30;11.50;99.90
23544;DHT22;11950;51.230;4.012;2024-01-30T05:17:56;11.50;99.90
23544;DHT22;11950;51.230;4.012;2024-01-30T05:20:23;11.60;99.90
23544;DHT22;11950;51.230;4.012;2024-01-30T05:22:49;11.60;99.90
23544;DHT22;11950;51.230;4.012;2024-01-30T05:25:15;11.60;99.90
23544;DHT22;11950;51.230;4.012;2024-01-30T05:27:41;11.60;99.90
23544;DHT22;11950;51.230;4.012;2024-01-30T05:30:08;11.60;99.90
23544;DHT22;11950;51.230;4.012;2024-01-30T05:32:35;11.60;99.90
23544;DHT22;11950;51.230;4.012;2024-01-30T05:35:01;11.60;99.90
23544;DHT22;11950;51.230;4.012;2024-01-30T05:37:28;11.60;99.90
23544;DHT22;11950;51.230;4.012;2024-01-30T05:39:54;11.60;99.90
23544;DHT22;11950;51.230;4.012;2024-01-30T05:42:20;11.60;99.90
23544;DHT22;11950;51.230;4.012;2024-01-30T05:44:46;11.70;99.90
23544;DHT22;11950;51.230;4.012;2024-01-30T05:47:13;11.70;99.90
23544;DHT22;11950;51.230;4.012;2024-01-30T05:49:39;11.70;99.90
23544;DHT22;11950;51.230;4.012;2024-01-30T05:52:05;11.70;99.90
23544;DHT22;11950;51.230;4.012;2024-01-30T05:54:32;11.80;99.90
23544;DHT22;11950;51.230;4.012;2024-01-30T05:56:58;11.80;99.90
23544;DHT22;11950;51.230;4.012;2024-01-30T05:59:24;11.80;99.90
23544;DHT22;11950;51.230;4.012;2024-01-30T06:01:51;11.80;99.90
23544;DHT22;11950;51.230;4.012;2024-01-30T06:04:17;11.80;99.90
23544;DHT22;11950;51.230;4.012;2024-01-30T06:06:43;11.80;99.90
23544;DHT22;11950;51.230;4.012;2024-01-30T06:09:09;11.80;99.90
23544;DHT22;11950;51.230;4.012;2024-01-30T06:11:36;11.80;99.90
23544;DHT22;11950;51.230;4.012;2024-01-30T06:14:02;11.80;99.90
23544;DHT22;11950;51.230;4.012;2024-01-30T06:16:28;11.80;99.90
23544;DHT22;11950;51.230;4.012;2024-01-30T06:18:56;11.80;99.90
23544;DHT22;11950;51.230;4.012;2024-01-30T06:21:24;11.80;99.90
23544;DHT22;11950;51.230;4.012;2024-01-30T06:23:51;11.90;99.90
23544;DHT22;11950;51.230;4.012;2024-01-30T06:26:17;11.90;99.90
23544;DHT22;11950;51.230;4.012;2024-01-30T06:28:43;11.90;99.90
23544;DHT22;11950;51.230;4.012;2024-01-30T06:31:10;11.90;99.90
23544;DHT22;11950;51.230;4.012;2024-01-30T06:33:36;12.00;99.90
23544;DHT22;11950;51.230;4.012;2024-01-30T06:36:03;12.00;99.90
23544;DHT22;11950;51.230;4.012;2024-01-30T06:38:29;12.00;99.90
23544;DHT22;11950;51.230;4.012;2024-01-30T06:40:55;12.00;99.90
23544;DHT22;11950;51.230;4.012;2024-01-30T06:43:22;12.00;99.90
23544;DHT22;11950;51.230;4.012;2024-01-30T06:45:48;12.10;99.90
23544;DHT22;11950;51.230;4.012;2024-01-30T06:48:14;12.10;99.90
23544;DHT22;11950;51.230;4.012;2024-01-30T06:50:41;12.10;99.90
23544;DHT22;11950;51.230;4.012;2024-01-30T06:53:07;12.10;99.90
23544;DHT22;11950;51.230;4.012;2024-01-30T06:55:33;12.10;99.90
23544;DHT22;11950;51.230;4.012;2024-01-30T06:57:59;12.10;99.90
23544;DHT22;11950;51.230;4.012;2024-01-30T07:00:26;12.10;99.90
23544;DHT22;11950;51.230;4.012;2024-01-30T07:02:52;12.10;99.90
23544;DHT22;11950;51.230;4.012;2024-01-30T07:05:18;12.10;99.90
23544;DHT22;11950;51.230;4.012;2024-01-30T07:07:44;12.10;99.90
23544;DHT22;11950;51.230;4.012;2024-01-30T07:10:11;12.10;99.90
23544;DHT22;11950;51.230;4.012;2024-01-30T07:12:37;12.10;99.90
23544;DHT22;11950;51.230;4.012;2024-01-30T07:15:04;12.20;99.90
23544;DHT22;11950;51.230;4.012;2024-01-30T07:17:30;12.20;99.90
23544;DHT22;11950;51.230;4.012;2024-01-30T07:19:56;12.20;99.90
23544;DHT22;11950;51.230;4.012;2024-01-30T07:22:22;12.20;99.90
23544;DHT22;11950;51.230;4.012;2024-01-30T07:24:48;12.20;99.90
23544;DHT22;11950;51.230;4.012;2024-01-30T07:27:15;12.20;99.90
23544;DHT22;11950;51.230;4.012;2024-01-30T07:29:43;12.20;99.90
23544;DHT22;11950;51.230;4.012;2024-01-30T07:32:10;12.20;99.90
23544;DHT22;11950;51.230;4.012;2024-01-30T07:34:36;12.20;99.90
23544;DHT22;11950;51.230;4.012;2024-01-30T07:37:02;12.30;99.90
23544;DHT22;11950;51.230;4.012;2024-01-30T07:39:29;12.30;99.90
23544;DHT22;11950;51.230;4.012;2024-01-30T07:41:55;12.30;99.90
23544;DHT22;11950;51.230;4.012;2024-01-30T07:44:22;12.30;99.90
23544;DHT22;11950;51.230;4.012;2024-01-30T07:46:48;12.30;99.90
23544;DHT22;11950;51.230;4.012;2024-01-30T07:49:15;12.30;99.90
23544;DHT22;11950;51.230;4.012;2024-01-30T07:51:41;12.30;99.90
23544;DHT22;11950;51.230;4.012;2024-01-30T07:54:13;12.40;99.90
23544;DHT22;11950;51.230;4.012;2024-01-30T07:56:39;12.40;99.90
23544;DHT22;11950;51.230;4.012;2024-01-30T07:59:10;12.40;99.90
23544;DHT22;11950;51.230;4.012;2024-01-30T08:01:36;12.40;99.90
23544;DHT22;11950;51.230;4.012;2024-01-30T08:04:02;12.40;99.90
23544;DHT22;11950;51.230;4.012;2024-01-30T08:06:29;12.50;99.90
23544;DHT22;11950;51.230;4.012;2024-01-30T08:08:55;12.50;99.90
23544;DHT22;11950;51.230;4.012;2024-01-30T08:11:23;12.50;99.90
23544;DHT22;11950;51.230;4.012;2024-01-30T08:13:55;12.60;99.90
23544;DHT22;11950;51.230;4.012;2024-01-30T08:16:21;12.60;99.90
23544;DHT22;11950;51.230;4.012;2024-01-30T08:18:47;12.60;99.90
23544;DHT22;11950;51.230;4.012;2024-01-30T08:21:14;12.60;99.90
23544;DHT22;11950;51.230;4.012;2024-01-30T08:23:40;12.70;99.90
23544;DHT22;11950;51.230;4.012;2024-01-30T08:26:07;12.70;99.90
23544;DHT22;11950;51.230;4.012;2024-01-30T08:28:33;12.70;99.90
23544;DHT22;11950;51.230;4.012;2024-01-30T08:31:00;12.70;99.90
23544;DHT22;11950;51.230;4.012;2024-01-30T08:33:26;12.70;99.90
23544;DHT22;11950;51.230;4.012;2024-01-30T08:35:52;12.80;99.90
23544;DHT22;11950;51.230;4.012;2024-01-30T08:38:19;12.80;99.90
23544;DHT22;11950;51.230;4.012;2024-01-30T08:40:46;12.80;99.90
23544;DHT22;11950;51.230;4.012;2024-01-30T08:43:12;12.80;99.90
23544;DHT22;11950;51.230;4.012;2024-01-30T08:45:38;12.80;99.90
23544;DHT22;11950;51.230;4.012;2024-01-30T08:48:05;12.80;99.90
23544;DHT22;11950;51.230;4.012;2024-01-30T08:50:31;12.90;99.90
23544;DHT22;11950;51.230;4.012;2024-01-30T08:52:57;12.90;99.90
23544;DHT22;11950;51.230;4.012;2024-01-30T08:55:24;12.90;99.90
23544;DHT22;11950;51.230;4.012;2024-01-30T08:57:50;12.90;99.90
23544;DHT22;11950;51.230;4.012;2024-01-30T09:00:18;12.90;99.90
23544;DHT22;11950;51.230;4.012;2024-01-30T09:02:44;12.90;99.90
23544;DHT22;11950;51.230;4.012;2024-01-30T09:05:10;12.90;99.90
23544;DHT22;11950;51.230;4.012;2024-01-30T09:07:36;12.90;99.90
23544;DHT22;11950;51.230;4.012;2024-01-30T09:10:03;13.00;99.90
23544;DHT22;11950;51.230;4.012;2024-01-30T09:12:29;13.00;99.90
23544;DHT22;11950;51.230;4.012;2024-01-30T09:14:56;13.00;99.90
23544;DHT22;11950;51.230;4.012;2024-01-30T09:17:22;13.00;99.90
23544;DHT22;11950;51.230;4.012;2024-01-30T09:19:48;13.00;99.90
23544;DHT22;11950;51.230;4.012;2024-01-30T09:22:14;13.10;99.90
23544;DHT22;11950;51.230;4.012;2024-01-30T09:24:41;13.10;99.90
23544;DHT22;11950;51.230;4.012;2024-01-30T09:27:07;13.10;99.90
23544;DHT22;11950;51.230;4.012;2024-01-30T09:29:33;13.20;99.90
23544;DHT22;11950;51.230;4.012;2024-01-30T09:32:02;13.20;99.90
23544;DHT22;11950;51.230;4.012;2024-01-30T09:34:29;13.20;99.90
23544;DHT22;11950;51.230;4.012;2024-01-30T09:36:55;13.20;99.90
23544;DHT22;11950;51.230;4.012;2024-01-30T09:39:22;13.10;99.90
23544;DHT22;11950;51.230;4.012;2024-01-30T09:44:29;13.20;99.90
23544;DHT22;11950;51.230;4.012;2024-01-30T09:46:56;13.20;99.90
23544;DHT22;11950;51.230;4.012;2024-01-30T09:49:31;13.20;99.90
23544;DHT22;11950;51.230;4.012;2024-01-30T09:51:58;13.20;99.90
23544;DHT22;11950;51.230;4.012;2024-01-30T09:54:24;13.20;99.90
23544;DHT22;11950;51.230;4.012;2024-01-30T09:56:51;13.30;99.90
23544;DHT22;11950;51.230;4.012;2024-01-30T09:59:17;13.30;99.90
23544;DHT22;11950;51.230;4.012;2024-01-30T10:01:43;13.30;99.90
23544;DHT22;11950;51.230;4.012;2024-01-30T10:04:10;13.40;99.90
23544;DHT22;11950;51.230;4.012;2024-01-30T10:06:37;13.40;99.90
23544;DHT22;11950;51.230;4.012;2024-01-30T10:09:03;13.40;99.90
23544;DHT22;11950;51.230;4.012;2024-01-30T10:11:30;13.40;99.90
23544;DHT22;11950;51.230;4.012;2024-01-30T10:13:56;13.40;99.90
23544;DHT22;11950;51.230;4.012;2024-01-30T10:16:23;13.30;99.90
23544;DHT22;11950;51.230;4.012;2024-01-30T10:18:50;13.30;99.90
23544;DHT22;11950;51.230;4.012;2024-01-30T10:21:16;13.30;99.90
23544;DHT22;11950;51.230;4.012;2024-01-30T10:23:43;13.30;99.90
23544;DHT22;11950;51.230;4.012;2024-01-30T10:26:10;13.30;99.90
23544;DHT22;11950;51.230;4.012;2024-01-30T10:28:37;13.30;99.90
23544;DHT22;11950;51.230;4.012;2024-01-30T10:31:03;13.30;99.90
23544;DHT22;11950;51.230;4.012;2024-01-30T10:33:30;13.30;99.90
23544;DHT22;11950;51.230;4.012;2024-01-30T10:36:04;13.40;99.90
23544;DHT22;11950;51.230;4.012;2024-01-30T10:38:32;13.40;99.90
23544;DHT22;11950;51.230;4.012;2024-01-30T10:41:00;13.40;99.90
23544;DHT22;11950;51.230;4.012;2024-01-30T10:43:35;13.40;99.90
23544;DHT22;11950;51.230;4.012;2024-01-30T10:46:11;13.40;99.90
23544;DHT22;11950;51.230;4.012;2024-01-30T10:48:42;13.40;99.90
23544;DHT22;11950;51.230;4.012;2024-01-30T10:51:11;13.40;99.90
23544;DHT22;11950;51.230;4.012;2024-01-30T10:53:39;13.40;99.90
23544;DHT22;11950;51.230;4.012;2024-01-30T10:56:06;13.50;99.90
23544;DHT22;11950;51.230;4.012;2024-01-30T10:58:32;13.50;99.90
23544;DHT22;11950;51.230;4.012;2024-01-30T11:00:59;13.50;99.90
23544;DHT22;11950;51.230;4.012;2024-01-30T11:03:26;13.60;99.90
23544;DHT22;11950;51.230;4.012;2024-01-30T11:05:52;13.70;99.90
23544;DHT22;11950;51.230;4.012;2024-01-30T11:08:25;13.70;99.90
23544;DHT22;11950;51.230;4.012;2024-01-30T11:10:56;13.70;99.90
23544;DHT22;11950;51.230;4.012;2024-01-30T11:13:31;13.80;99.90
23544;DHT22;11950;51.230;4.012;2024-01-30T11:16:02;13.70;99.90
23544;DHT22;11950;51.230;4.012;2024-01-30T11:18:30;13.80;99.90
23544;DHT22;11950;51.230;4.012;2024-01-30T11:20:58;13.80;99.90
23544;DHT22;11950;51.230;4.012;2024-01-30T11:23:26;13.80;99.90
23544;DHT22;11950;51.230;4.012;2024-01-30T11:25:53;13.80;99.90
23544;DHT22;11950;51.230;4.012;2024-01-30T11:28:21;13.70;99.90
23544;DHT22;11950;51.230;4.012;2024-01-30T11:30:48;13.70;99.90
23544;DHT22;11950;51.230;4.012;2024-01-30T11:33:29;13.70;99.90
23544;DHT22;11950;51.230;4.012;2024-01-30T11:35:59;13.70;99.90
23544;DHT22;11950;51.230;4.012;2024-01-30T11:38:28;13.60;99.90
23544;DHT22;11950;51.230;4.012;2024-01-30T11:40:55;13.60;99.90
23544;DHT22;11950;51.230;4.012;2024-01-30T11:43:24;13.60;99.90
23544;DHT22;11950;51.230;4.012;2024-01-30T11:45:51;13.60;99.90
23544;DHT22;11950;51.230;4.012;2024-01-30T11:48:18;13.60;99.90
23544;DHT22;11950;51.230;4.012;2024-01-30T11:50:44;13.50;99.90
23544;DHT22;11950;51.230;4.012;2024-01-30T11:53:11;13.50;99.90
23544;DHT22;11950;51.230;4.012;2024-01-30T11:55:37;13.50;99.90
23544;DHT22;11950;51.230;4.012;2024-01-30T11:58:04;13.50;99.90
23544;DHT22;11950;51.230;4.012;2024-01-30T12:00:30;13.40;99.90
23544;DHT22;11950;51.230;4.012;2024-01-30T12:02:57;13.40;99.90
23544;DHT22;11950;51.230;4.012;2024-01-30T12:05:24;13.30;99.90
23544;DHT22;11950;51.230;4.012;2024-01-30T12:07:51;13.30;99.90
23544;DHT22;11950;51.230;4.012;2024-01-30T12:10:17;13.30;99.90
23544;DHT22;11950;51.230;4.012;2024-01-30T12:12:46;13.30;99.90
23544;DHT22;11950;51.230;4.012;2024-01-30T12:15:14;13.20;99.90
23544;DHT22;11950;51.230;4.012;2024-01-30T12:17:41;13.10;99.90
23544;DHT22;11950;51.230;4.012;2024-01-30T12:20:09;13.10;99.90
23544;DHT22;11950;51.230;4.012;2024-01-30T12:22:37;13.10;99.90
23544;DHT22;11950;51.230;4.012;2024-01-30T12:25:17;13.00;99.90
23544;DHT22;11950;51.230;4.012;2024-01-30T12:27:45;13.00;99.90
23544;DHT22;11950;51.230;4.012;2024-01-30T12:30:13;12.90;99.90
23544;DHT22;11950;51.230;4.012;2024-01-30T12:32:41;12.90;99.90
23544;DHT22;11950;51.230;4.012;2024-01-30T12:35:15;12.90;99.90
23544;DHT22;11950;51.230;4.012;2024-01-30T12:37:43;12.90;99.90
23544;DHT22;11950;51.230;4.012;2024-01-30T12:40:10;12.90;99.90
23544;DHT22;11950;51.230;4.012;2024-01-30T12:42:39;12.90;99.90
23544;DHT22;11950;51.230;4.012;2024-01-30T12:45:06;12.80;99.90
23544;DHT22;11950;51.230;4.012;2024-01-30T12:47:32;12.80;99.90
23544;DHT22;11950;51.230;4.012;2024-01-30T12:49:59;12.80;99.90
23544;DHT22;11950;51.230;4.012;2024-01-30T12:52:25;12.80;99.90
23544;DHT22;11950;51.230;4.012;2024-01-30T12:54:51;12.70;99.90
23544;DHT22;11950;51.230;4.012;2024-01-30T12:57:18;12.70;99.90
23544;DHT22;11950;51.230;4.012;2024-01-30T12:59:45;12.60;99.90
23544;DHT22;11950;51.230;4.012;2024-01-30T13:02:15;12.60;99.90
23544;DHT22;11950;51.230;4.012;2024-01-30T13:04:42;12.60;99.90
23544;DHT22;11950;51.230;4.012;2024-01-30T13:07:08;12.60;99.90
23544;DHT22;11950;51.230;4.012;2024-01-30T13:09:34;12.60;99.90
23544;DHT22;11950;51.230;4.012;2024-01-30T13:12:00;12.50;99.90
23544;DHT22;11950;51.230;4.012;2024-01-30T13:14:27;12.50;99.90
23544;DHT22;11950;51.230;4.012;2024-01-30T13:16:53;12.50;99.90
23544;DHT22;11950;51.230;4.012;2024-01-30T13:19:20;12.50;99.90
23544;DHT22;11950;51.230;4.012;2024-01-30T13:21:46;12.40;99.90
23544;DHT22;11950;51.230;4.012;2024-01-30T13:24:14;12.40;99.90
23544;DHT22;11950;51.230;4.012;2024-01-30T13:26:42;12.40;99.90
23544;DHT22;11950;51.230;4.012;2024-01-30T13:29:08;12.40;99.90
23544;DHT22;11950;51.230;4.012;2024-01-30T13:31:34;12.40;99.90
23544;DHT22;11950;51.230;4.012;2024-01-30T13:34:01;12.30;99.90
23544;DHT22;11950;51.230;4.012;2024-01-30T13:36:27;12.30;99.90
23544;DHT22;11950;51.230;4.012;2024-01-30T13:38:53;12.30;99.90
23544;DHT22;11950;51.230;4.012;2024-01-30T13:41:20;12.30;99.90
23544;DHT22;11950;51.230;4.012;2024-01-30T13:43:47;12.30;99.90
23544;DHT22;11950;51.230;4.012;2024-01-30T13:46:13;12.30;99.90
23544;DHT22;11950;51.230;4.012;2024-01-30T13:48:40;12.30;99.90
23544;DHT22;11950;51.230;4.012;2024-01-30T13:51:06;12.20;99.90
23544;DHT22;11950;51.230;4.012;2024-01-30T13:53:32;12.20;99.90
23544;DHT22;11950;51.230;4.012;2024-01-30T13:55:58;12.20;99.90
23544;DHT22;11950;51.230;4.012;2024-01-30T13:58:24;12.20;99.90
23544;DHT22;11950;51.230;4.012;2024-01-30T14:00:51;12.20;99.90
23544;DHT22;11950;51.230;4.012;2024-01-30T14:03:17;12.20;99.90
23544;DHT22;11950;51.230;4.012;2024-01-30T14:05:43;12.20;99.90
23544;DHT22;11950;51.230;4.012;2024-01-30T14:08:10;12.20;99.90
23544;DHT22;11950;51.230;4.012;2024-01-30T14:10:37;12.10;99.90
23544;DHT22;11950;51.230;4.012;2024-01-30T14:13:03;12.10;99.90
23544;DHT22;11950;51.230;4.012;2024-01-30T14:15:29;12.10;99.90
23544;DHT22;11950;51.230;4.012;2024-01-30T14:17:56;12.10;99.90
23544;DHT22;11950;51.230;4.012;2024-01-30T14:20:22;12.10;99.90
23544;DHT22;11950;51.230;4.012;2024-01-30T14:22:48;12.00;99.90
23544;DHT22;11950;51.230;4.012;2024-01-30T14:25:14;12.00;99.90
23544;DHT22;11950;51.230;4.012;2024-01-30T14:27:42;12.00;99.90
23544;DHT22;11950;51.230;4.012;2024-01-30T14:30:11;12.00;99.90
23544;DHT22;11950;51.230;4.012;2024-01-30T14:32:38;12.00;99.90
23544;DHT22;11950;51.230;4.012;2024-01-30T14:35:05;12.00;99.90
23544;DHT22;11950;51.230;4.012;2024-01-30T14:37:31;11.90;99.90
23544;DHT22;11950;51.230;4.012;2024-01-30T14:39:58;11.90;99.90
23544;DHT22;11950;51.230;4.012;2024-01-30T14:42:24;11.90;99.90
23544;DHT22;11950;51.230;4.012;2024-01-30T14:44:50;11.90;99.90
23544;DHT22;11950;51.230;4.012;2024-01-30T14:47:16;11.80;99.90
23544;DHT22;11950;51.230;4.012;2024-01-30T14:49:43;11.80;99.90
23544;DHT22;11950;51.230;4.012;2024-01-30T14:52:09;11.80;99.90
23544;DHT22;11950;51.230;4.012;2024-01-30T14:54:37;11.80;99.90
23544;DHT22;11950;51.230;4.012;2024-01-30T14:57:04;11.80;99.90
23544;DHT22;11950;51.230;4.012;2024-01-30T14:59:30;11.80;99.90
23544;DHT22;11950;51.230;4.012;2024-01-30T15:01:56;11.70;99.90
23544;DHT22;11950;51.230;4.012;2024-01-30T15:04:23;11.80;99.90
23544;DHT22;11950;51.230;4.012;2024-01-30T15:06:49;11.80;99.90
23544;DHT22;11950;51.230;4.012;2024-01-30T15:09:15;11.80;99.90
23544;DHT22;11950;51.230;4.012;2024-01-30T15:11:44;11.80;99.90
23544;DHT22;11950;51.230;4.012;2024-01-30T15:14:10;11.80;99.90
23544;DHT22;11950;51.230;4.012;2024-01-30T15:16:37;11.80;99.90
23544;DHT22;11950;51.230;4.012;2024-01-30T15:19:03;11.70;99.90
23544;DHT22;11950;51.230;4.012;2024-01-30T15:21:33;11.70;99.90
23544;DHT22;11950;51.230;4.012;2024-01-30T15:24:00;11.70;99.90
23544;DHT22;11950;51.230;4.012;2024-01-30T15:26:27;11.70;99.90
23544;DHT22;11950;51.230;4.012;2024-01-30T15:28:53;11.70;99.90